Decoded Metar for KEHR (HENDERSON CITY in KY, USA) (IATA:EHR) | Meteo·Mobile Aviation Weather
aviador You're here:

KEHR Decoded Metar

HENDERSON CITY in KY, USA
Report Time2018-10-22 13:56:00
UTC Time2018-10-22 14:42:05
Flight Rules vfr VFR
Wind220° at 06 kt
W.Decomp.*RWY 27: 3.9 kt HW 4.5 kt LCW
W.Rank220° ranks 5
Current wind is below 220° avg. (8.2)
Visibility9999 m
Phenomena:N/A
Clouds:N/A
Expected CloudBase > 2,000 ft AGL from Temp-Dew spread
CeilingNone
Temp07°C (ISA -7)
Dew Point02°C (71% RH)
AAT3.2°C
QNH1025 hPa
Density Alt-794 ft
Elevation384 ft
Report Wrong Elevation
Raw Report
METAR KEHR 221356Z AUTO 22006KT 10SM CLR 07/02 A3026 RMK AO2 SLP261
T00720022=

Extra information for KEHR:More info

Metar Taf Metar & Taf Last 4 Metars F.Rules Stats Wind Profile Meteogram Temp Stats Airport Information Weather charts Add Link Nearby VenuesMetar ALERT Operation Metar Decoded Social comments

AIRNAV info for KEHR